Time;durP1;ratioP1;P1;durP2;ratioP2;P2;SDS_P1;SDS_P2;PMS_P1;PMS_P2;Temp;Humidity;BMP_temperature;BMP_pressure;BME280_temperature;BME280_humidity;BME280_pressure;Samples;Min_cycle;Max_cycle;Signal;HPM_P1;HPM_P2
2021/01/20 00:02:37;;;;;;;;;95.75;70.50;;;;;;;;12250029;29;8842;-51
2021/01/20 00:08:39;;;;;;;;;95.75;71.25;;;;;;;;12242579;29;8861;-48
2021/01/20 00:14:40;;;;;;;;;91.00;71.00;;;;;;;;12248527;28;8906;-51
2021/01/20 00:20:42;;;;;;;;;91.00;70.00;;;;;;;;12250495;29;8835;-49
2021/01/20 00:26:43;;;;;;;;;99.25;69.25;;;;;;;;12250658;28;8851;-47
2021/01/20 00:32:45;;;;;;;;;94.50;72.25;;;;;;;;12251516;29;8847;-50
2021/01/20 00:38:46;;;;;;;;;97.00;75.25;;;;;;;;12244960;29;8868;-49
2021/01/20 00:44:47;;;;;;;;;95.25;70.00;;;;;;;;12252526;28;8855;-49
2021/01/20 00:50:56;;;;;;;;;91.50;69.75;;;;;;;;12251655;29;8866;-47
2021/01/20 00:56:57;;;;;;;;;92.00;72.75;;;;;;;;12238044;28;8965;-51
2021/01/20 01:02:59;;;;;;;;;83.50;67.25;;;;;;;;12238932;29;8862;-51
2021/01/20 01:09:00;;;;;;;;;95.25;75.00;;;;;;;;12234493;29;8857;-47
2021/01/20 01:15:04;;;;;;;;;97.25;72.75;;;;;;;;12240047;28;8863;-46
2021/01/20 01:21:08;;;;;;;;;93.50;70.25;;;;;;;;12228561;28;8937;-48
2021/01/20 01:27:10;;;;;;;;;93.00;71.50;;;;;;;;12239903;28;8852;-48
2021/01/20 01:33:12;;;;;;;;;95.25;75.00;;;;;;;;12254012;29;8835;-47
2021/01/20 01:39:16;;;;;;;;;90.25;69.50;;;;;;;;12217371;29;8868;-47
2021/01/20 01:45:22;;;;;;;;;92.50;69.50;;;;;;;;12240334;29;8862;-47
2021/01/20 01:51:24;;;;;;;;;94.00;72.50;;;;;;;;12239843;29;8848;-47
2021/01/20 01:57:51;;;;;;;;;92.00;70.00;;;;;;;;12252291;29;8849;-47
2021/01/20 02:03:55;;;;;;;;;89.75;69.25;;;;;;;;12248804;29;8989;-48
2021/01/20 02:10:06;;;;;;;;;92.00;73.00;;;;;;;;12224254;29;8840;-48
2021/01/20 02:16:15;;;;;;;;;73.00;59.00;;;;;;;;12238828;28;8850;-47
2021/01/20 02:22:33;;;;;;;;;90.25;69.00;;;;;;;;12231588;28;8848;-47
2021/01/20 02:28:53;;;;;;;;;92.50;71.00;;;;;;;;12253505;29;8851;-46
2021/01/20 02:35:05;;;;;;;;;84.50;65.25;;;;;;;;12235129;28;9590;-45
2021/01/20 02:41:08;;;;;;;;;84.00;67.00;;;;;;;;12253873;28;8873;-50
2021/01/20 02:47:39;;;;;;;;;86.00;67.50;;;;;;;;12240569;28;8856;-51
2021/01/20 02:53:47;;;;;;;;;82.25;64.25;;;;;;;;12240594;29;8955;-51
2021/01/20 03:00:08;;;;;;;;;84.75;65.75;;;;;;;;12255835;28;8872;-46
2021/01/20 03:06:18;;;;;;;;;82.00;63.00;;;;;;;;12249996;28;9665;-49
2021/01/20 03:12:30;;;;;;;;;74.75;61.00;;;;;;;;12258173;28;8848;-47
2021/01/20 03:18:32;;;;;;;;;83.00;65.75;;;;;;;;12259031;29;8842;-48
2021/01/20 03:24:33;;;;;;;;;72.00;58.25;;;;;;;;12258075;28;8856;-46
2021/01/20 03:30:34;;;;;;;;;76.00;59.33;;;;;;;;12244014;29;9565;-48
2021/01/20 03:36:35;;;;;;;;;83.33;61.33;;;;;;;;12258117;28;8875;-46
2021/01/20 03:42:37;;;;;;;;;78.00;61.00;;;;;;;;12258892;28;8868;-47
2021/01/20 03:48:38;;;;;;;;;73.00;57.67;;;;;;;;12254044;29;9021;-49
2021/01/20 03:54:39;;;;;;;;;69.33;55.00;;;;;;;;12261700;28;8994;-46
2021/01/20 04:00:41;;;;;;;;;76.00;60.67;;;;;;;;12251424;28;9648;-52
2021/01/20 04:06:45;;;;;;;;;73.67;57.33;;;;;;;;12246804;28;8863;-48
2021/01/20 04:12:46;;;;;;;;;78.00;63.00;;;;;;;;12250652;28;8868;-49
2021/01/20 04:18:49;;;;;;;;;73.00;59.00;;;;;;;;12236989;29;8847;-48
2021/01/20 04:24:50;;;;;;;;;63.67;55.67;;;;;;;;12245524;29;8849;-49
2021/01/20 04:30:52;;;;;;;;;67.67;54.00;;;;;;;;12252717;28;8880;-48
2021/01/20 04:36:53;;;;;;;;;70.00;54.33;;;;;;;;12246147;29;8913;-47
2021/01/20 04:42:55;;;;;;;;;70.00;57.00;;;;;;;;12253946;28;8828;-47
2021/01/20 04:48:58;;;;;;;;;67.00;52.00;;;;;;;;12249544;29;8854;-50
2021/01/20 04:55:01;;;;;;;;;72.33;58.00;;;;;;;;12242801;29;8844;-46
2021/01/20 05:07:41;;;;;;;;;63.33;52.00;;;;;;;;12110386;23;8784;-48
2021/01/20 05:13:44;;;;;;;;;82.67;63.67;;;;;;;;12055080;29;8863;-48
2021/01/20 05:19:46;;;;;;;;;69.00;54.67;;;;;;;;12055395;29;8851;-49
2021/01/20 05:25:49;;;;;;;;;47.67;35.33;;;;;;;;12054865;29;8867;-49
2021/01/20 05:31:51;;;;;;;;;61.33;51.00;;;;;;;;12053993;29;8893;-49
2021/01/20 05:37:52;;;;;;;;;67.67;52.67;;;;;;;;12056824;29;8851;-47
2021/01/20 05:43:55;;;;;;;;;61.67;51.67;;;;;;;;12054314;29;8898;-49
2021/01/20 05:50:07;;;;;;;;;67.00;52.00;;;;;;;;12060290;29;8862;-49
2021/01/20 05:56:09;;;;;;;;;72.00;54.00;;;;;;;;12056815;29;8883;-49
2021/01/20 06:02:12;;;;;;;;;64.67;51.67;;;;;;;;12055908;29;8856;-50
2021/01/20 06:08:14;;;;;;;;;55.67;47.33;;;;;;;;12097357;29;9513;-52
2021/01/20 06:14:15;;;;;;;;;57.33;45.67;;;;;;;;12105173;29;8970;-49
2021/01/20 06:20:20;;;;;;;;;55.33;47.33;;;;;;;;12106878;29;8856;-49
2021/01/20 06:26:25;;;;;;;;;64.33;52.00;;;;;;;;12104915;29;8863;-51
2021/01/20 06:32:28;;;;;;;;;60.33;51.33;;;;;;;;12104211;29;8872;-51
2021/01/20 06:38:34;;;;;;;;;65.67;52.67;;;;;;;;12105257;29;9025;-52
2021/01/20 06:44:36;;;;;;;;;67.67;54.67;;;;;;;;12103618;29;8883;-48
2021/01/20 06:51:05;;;;;;;;;55.00;48.00;;;;;;;;12104699;29;8844;-51
2021/01/20 06:57:32;;;;;;;;;75.00;57.00;;;;;;;;12096523;29;8844;-54
2021/01/20 07:03:39;;;;;;;;;71.00;52.67;;;;;;;;12099553;29;8875;-51
2021/01/20 07:10:07;;;;;;;;;63.67;49.00;;;;;;;;12102594;29;8868;-50
2021/01/20 07:16:11;;;;;;;;;65.67;52.67;;;;;;;;12101844;29;8880;-48
2021/01/20 07:22:14;;;;;;;;;68.00;54.00;;;;;;;;12102584;29;8891;-53
2021/01/20 07:28:17;;;;;;;;;71.00;57.67;;;;;;;;12101747;29;9626;-50
2021/01/20 07:34:18;;;;;;;;;72.33;55.67;;;;;;;;12102900;29;8861;-50
2021/01/20 07:40:20;;;;;;;;;67.00;56.33;;;;;;;;12100828;29;8860;-51
2021/01/20 07:46:23;;;;;;;;;76.67;60.00;;;;;;;;12102091;29;8864;-51
2021/01/20 07:52:24;;;;;;;;;72.00;57.67;;;;;;;;12101353;29;8856;-48
2021/01/20 07:58:29;;;;;;;;;77.33;60.67;;;;;;;;12100677;29;8868;-52
2021/01/20 08:04:30;;;;;;;;;73.00;60.00;;;;;;;;12100314;29;8884;-51
2021/01/20 08:10:34;;;;;;;;;67.67;57.67;;;;;;;;12099996;29;8853;-52
2021/01/20 08:16:35;;;;;;;;;69.00;54.33;;;;;;;;12101754;29;8919;-49
2021/01/20 08:22:39;;;;;;;;;61.33;52.67;;;;;;;;12100132;29;8890;-49
2021/01/20 08:29:00;;;;;;;;;65.00;56.33;;;;;;;;12096583;29;8852;-52
2021/01/20 08:35:02;;;;;;;;;70.00;54.67;;;;;;;;12100458;29;8882;-51
2021/01/20 08:41:15;;;;;;;;;68.67;56.67;;;;;;;;12097788;29;8868;-52
2021/01/20 08:47:19;;;;;;;;;74.33;60.67;;;;;;;;12100002;29;8876;-54
2021/01/20 08:53:23;;;;;;;;;90.67;69.00;;;;;;;;12098324;29;8875;-53
2021/01/20 08:59:56;;;;;;;;;88.00;68.33;;;;;;;;12098243;29;8840;-50
2021/01/20 09:06:04;;;;;;;;;82.33;65.33;;;;;;;;12097833;29;9638;-50
2021/01/20 09:12:08;;;;;;;;;81.67;64.33;;;;;;;;12090739;29;8896;-52
2021/01/20 09:18:10;;;;;;;;;73.50;57.50;;;;;;;;12091528;29;8923;-55
2021/01/20 09:24:11;;;;;;;;;73.25;60.50;;;;;;;;12090010;29;8884;-49
2021/01/20 09:30:25;;;;;;;;;63.00;53.25;;;;;;;;12095079;29;8856;-49
2021/01/20 09:36:27;;;;;;;;;69.50;57.50;;;;;;;;12095181;29;8880;-52
2021/01/20 09:42:28;;;;;;;;;71.75;57.50;;;;;;;;12095963;29;8963;-51
2021/01/20 09:48:29;;;;;;;;;67.50;51.75;;;;;;;;12097713;29;8898;-53
2021/01/20 09:54:31;;;;;;;;;69.50;55.00;;;;;;;;12096302;29;9811;-51
2021/01/20 10:00:35;;;;;;;;;63.50;53.50;;;;;;;;12089397;29;8880;-54
2021/01/20 10:06:36;;;;;;;;;60.00;49.00;;;;;;;;12095888;29;8977;-52
2021/01/20 10:12:38;;;;;;;;;64.75;51.75;;;;;;;;12096112;29;8864;-50
2021/01/20 10:18:39;;;;;;;;;60.50;48.00;;;;;;;;12098037;29;8896;-50
2021/01/20 10:24:40;;;;;;;;;47.50;39.50;;;;;;;;12095689;29;8918;-49
2021/01/20 10:30:43;;;;;;;;;46.00;39.75;;;;;;;;12096588;29;8853;-52
2021/01/20 10:36:44;;;;;;;;;38.50;32.25;;;;;;;;12100550;29;9572;-52
2021/01/20 10:42:46;;;;;;;;;35.25;32.50;;;;;;;;12100762;29;8872;-51
2021/01/20 10:48:47;;;;;;;;;40.75;37.50;;;;;;;;12106375;29;8860;-51
2021/01/20 10:54:49;;;;;;;;;44.50;38.50;;;;;;;;12104231;29;8884;-54
2021/01/20 11:00:50;;;;;;;;;44.00;37.75;;;;;;;;12103813;29;8899;-50
2021/01/20 11:06:51;;;;;;;;;35.75;33.00;;;;;;;;12104122;29;8892;-52
2021/01/20 11:12:53;;;;;;;;;43.50;34.75;;;;;;;;12087964;29;8898;-50
2021/01/20 11:18:54;;;;;;;;;30.00;30.00;;;;;;;;12089764;29;8908;-48
2021/01/20 11:25:01;;;;;;;;;35.25;32.25;;;;;;;;12084317;29;8969;-49
2021/01/20 11:31:03;;;;;;;;;36.50;36.50;;;;;;;;12085673;29;8863;-50
2021/01/20 11:37:11;;;;;;;;;30.00;25.50;;;;;;;;12085409;29;8867;-53
2021/01/20 11:43:13;;;;;;;;;39.25;35.00;;;;;;;;12084435;29;8866;-51
2021/01/20 11:49:14;;;;;;;;;33.25;30.00;;;;;;;;12080529;29;9803;-52
2021/01/20 11:55:15;;;;;;;;;31.50;29.50;;;;;;;;12085005;29;8867;-51
2021/01/20 12:01:18;;;;;;;;;35.00;33.00;;;;;;;;12094904;29;8975;-49
2021/01/20 12:07:20;;;;;;;;;46.25;40.50;;;;;;;;12096930;29;8868;-51
2021/01/20 12:13:22;;;;;;;;;44.50;41.25;;;;;;;;12097333;29;8883;-52
2021/01/20 12:19:35;;;;;;;;;47.50;40.50;;;;;;;;12098811;29;8856;-51
2021/01/20 12:25:37;;;;;;;;;38.75;38.50;;;;;;;;12099537;29;8963;-49
2021/01/20 12:31:38;;;;;;;;;30.50;29.25;;;;;;;;12100269;29;9002;-52
2021/01/20 12:37:40;;;;;;;;;28.75;25.00;;;;;;;;12100232;29;8951;-52
2021/01/20 12:43:41;;;;;;;;;26.25;22.25;;;;;;;;12098662;29;8876;-55
2021/01/20 12:49:43;;;;;;;;;24.75;23.75;;;;;;;;12098383;29;8856;-51
2021/01/20 12:55:44;;;;;;;;;28.75;28.75;;;;;;;;12096984;29;8864;-54
2021/01/20 13:01:45;;;;;;;;;27.00;23.00;;;;;;;;12098811;29;8864;-51
2021/01/20 13:07:47;;;;;;;;;35.50;28.00;;;;;;;;12098931;29;8975;-49
2021/01/20 13:13:48;;;;;;;;;35.75;33.75;;;;;;;;12095484;29;8872;-52
2021/01/20 13:19:51;;;;;;;;;42.00;36.75;;;;;;;;12098053;29;8877;-51
2021/01/20 13:25:53;;;;;;;;;39.00;36.00;;;;;;;;12097797;29;8871;-51
2021/01/20 13:31:54;;;;;;;;;42.00;39.75;;;;;;;;12095682;29;8883;-53
2021/01/20 13:37:56;;;;;;;;;41.50;35.75;;;;;;;;12097336;29;8860;-50
2021/01/20 13:43:58;;;;;;;;;36.25;34.50;;;;;;;;12097173;29;8861;-54
2021/01/20 13:49:59;;;;;;;;;47.50;41.50;;;;;;;;12099056;29;8888;-54
2021/01/20 13:56:00;;;;;;;;;47.75;42.25;;;;;;;;12098573;29;8876;-50
2021/01/20 14:02:06;;;;;;;;;54.50;47.25;;;;;;;;12098197;29;8899;-49
2021/01/20 14:08:08;;;;;;;;;42.50;42.50;;;;;;;;12090379;29;8949;-52
2021/01/20 14:14:09;;;;;;;;;53.25;46.25;;;;;;;;12104563;29;9727;-54
2021/01/20 14:20:12;;;;;;;;;46.50;44.00;;;;;;;;12106905;29;8852;-53
2021/01/20 14:26:13;;;;;;;;;49.25;43.50;;;;;;;;12105523;29;8887;-54
2021/01/20 14:32:15;;;;;;;;;59.00;46.75;;;;;;;;12105631;29;9622;-52
2021/01/20 14:38:16;;;;;;;;;61.00;50.50;;;;;;;;12105979;29;9816;-55
2021/01/20 14:44:18;;;;;;;;;50.00;42.75;;;;;;;;12100021;29;8872;-51
2021/01/20 14:50:19;;;;;;;;;64.33;52.00;;;;;;;;12102345;29;8892;-52
2021/01/20 14:56:21;;;;;;;;;58.67;49.00;;;;;;;;12103309;29;9011;-54
2021/01/20 15:02:22;;;;;;;;;63.00;52.00;;;;;;;;12103555;29;8954;-52
2021/01/20 15:08:26;;;;;;;;;58.00;46.00;;;;;;;;12105479;29;8868;-49
2021/01/20 15:14:28;;;;;;;;;62.67;52.00;;;;;;;;12103735;29;8978;-52
2021/01/20 15:20:30;;;;;;;;;67.50;51.50;;;;;;;;12104293;29;8884;-50
2021/01/20 15:26:31;;;;;;;;;72.33;56.33;;;;;;;;12103036;29;8879;-49
2021/01/20 15:32:32;;;;;;;;;58.00;51.00;;;;;;;;12102434;29;8891;-51
2021/01/20 15:38:35;;;;;;;;;67.00;55.67;;;;;;;;12104372;29;8863;-52
2021/01/20 15:44:36;;;;;;;;;73.67;57.33;;;;;;;;12102505;29;8937;-53
2021/01/20 15:50:38;;;;;;;;;70.33;57.33;;;;;;;;12102975;29;8936;-50
2021/01/20 15:56:39;;;;;;;;;64.33;51.00;;;;;;;;12100618;29;8903;-49
2021/01/20 16:02:41;;;;;;;;;77.00;60.33;;;;;;;;12101646;29;8966;-51
2021/01/20 16:08:43;;;;;;;;;72.33;60.33;;;;;;;;12103501;29;8895;-53
2021/01/20 16:14:44;;;;;;;;;76.33;57.33;;;;;;;;12102231;29;8875;-52
2021/01/20 16:20:46;;;;;;;;;69.33;57.00;;;;;;;;12101345;29;8895;-51
2021/01/20 16:26:47;;;;;;;;;77.67;61.33;;;;;;;;12100996;29;8872;-50
2021/01/20 16:32:48;;;;;;;;;70.67;57.67;;;;;;;;12098667;29;8868;-51
2021/01/20 16:38:55;;;;;;;;;69.00;57.00;;;;;;;;12100796;29;8864;-53
2021/01/20 16:44:56;;;;;;;;;77.00;62.33;;;;;;;;12098046;29;8883;-53
2021/01/20 16:50:58;;;;;;;;;76.33;60.67;;;;;;;;12099633;29;8872;-52
2021/01/20 16:57:02;;;;;;;;;86.33;66.00;;;;;;;;12099788;29;8888;-54
2021/01/20 17:03:04;;;;;;;;;77.33;59.33;;;;;;;;12096345;29;8888;-50
2021/01/20 17:09:06;;;;;;;;;71.67;57.00;;;;;;;;12092274;29;8852;-50
2021/01/20 17:15:08;;;;;;;;;79.67;63.00;;;;;;;;12078317;29;8923;-53
2021/01/20 17:21:10;;;;;;;;;74.67;59.67;;;;;;;;12099443;29;8888;-51
2021/01/20 17:27:11;;;;;;;;;81.67;66.00;;;;;;;;12098695;29;8904;-51
2021/01/20 17:33:12;;;;;;;;;78.33;61.67;;;;;;;;12097188;29;8868;-51
2021/01/20 17:39:14;;;;;;;;;91.33;69.00;;;;;;;;12099076;29;8860;-49
2021/01/20 17:45:15;;;;;;;;;91.67;70.00;;;;;;;;12101500;29;8888;-50
2021/01/20 17:51:17;;;;;;;;;86.33;66.33;;;;;;;;12107400;29;8903;-52
2021/01/20 17:57:18;;;;;;;;;87.33;67.67;;;;;;;;12108086;29;8986;-51
2021/01/20 18:03:20;;;;;;;;;85.67;69.00;;;;;;;;12105428;29;9015;-48
2021/01/20 18:09:21;;;;;;;;;84.67;67.33;;;;;;;;12107725;29;8907;-53
2021/01/20 18:15:23;;;;;;;;;83.33;67.00;;;;;;;;12105770;29;9656;-51
2021/01/20 18:21:24;;;;;;;;;87.67;70.33;;;;;;;;12105639;29;8935;-54
2021/01/20 18:27:26;;;;;;;;;85.00;67.67;;;;;;;;12106565;29;9441;-53
2021/01/20 18:33:27;;;;;;;;;94.00;72.00;;;;;;;;12104893;29;8861;-50
2021/01/20 18:39:29;;;;;;;;;90.33;69.67;;;;;;;;12106241;29;8888;-49
2021/01/20 18:45:30;;;;;;;;;82.67;68.33;;;;;;;;12105222;29;9652;-50
2021/01/20 18:51:32;;;;;;;;;89.67;68.67;;;;;;;;12104983;29;8876;-51
2021/01/20 18:57:33;;;;;;;;;93.67;71.33;;;;;;;;12099169;29;8868;-52
2021/01/20 19:03:34;;;;;;;;;89.00;68.33;;;;;;;;12103597;29;8875;-50
2021/01/20 19:09:36;;;;;;;;;88.33;65.33;;;;;;;;12105023;29;8891;-48
2021/01/20 19:15:39;;;;;;;;;87.00;69.67;;;;;;;;12102960;29;8962;-51
2021/01/20 19:21:43;;;;;;;;;88.00;66.00;;;;;;;;12103046;29;8959;-49
2021/01/20 19:27:45;;;;;;;;;82.00;64.67;;;;;;;;12103607;29;8875;-49
2021/01/20 19:33:46;;;;;;;;;81.33;66.00;;;;;;;;12102034;29;8857;-52
2021/01/20 19:39:47;;;;;;;;;84.00;59.33;;;;;;;;12103957;29;8872;-52
2021/01/20 19:45:50;;;;;;;;;90.00;67.00;;;;;;;;12102127;29;8880;-49
2021/01/20 19:51:56;;;;;;;;;87.33;69.00;;;;;;;;12102262;29;8864;-50
2021/01/20 19:57:58;;;;;;;;;82.00;66.67;;;;;;;;12102371;29;8903;-48
2021/01/20 20:04:00;;;;;;;;;84.33;67.00;;;;;;;;12114220;29;8891;-50
2021/01/20 20:10:01;;;;;;;;;77.00;63.33;;;;;;;;12101458;29;8895;-52
2021/01/20 20:16:03;;;;;;;;;78.00;63.33;;;;;;;;12101196;29;8856;-49
2021/01/20 20:22:05;;;;;;;;;86.33;63.33;;;;;;;;12100050;29;8909;-48
2021/01/20 20:28:07;;;;;;;;;89.33;67.67;;;;;;;;12094641;29;8864;-45
2021/01/20 20:34:08;;;;;;;;;79.00;64.00;;;;;;;;12099761;29;9022;-50
2021/01/20 20:40:11;;;;;;;;;88.00;67.67;;;;;;;;12099978;29;8919;-49
2021/01/20 20:46:12;;;;;;;;;87.33;69.00;;;;;;;;12098436;29;8868;-46
2021/01/20 20:52:14;;;;;;;;;90.33;70.33;;;;;;;;12099206;29;8942;-47
2021/01/20 20:58:16;;;;;;;;;86.67;67.67;;;;;;;;12100061;29;9019;-52
2021/01/20 21:04:19;;;;;;;;;94.00;73.00;;;;;;;;12098435;29;8864;-49
2021/01/20 21:10:22;;;;;;;;;96.33;73.00;;;;;;;;12101017;29;8861;-51
2021/01/20 21:16:24;;;;;;;;;90.67;70.00;;;;;;;;12096407;29;8884;-48
2021/01/20 21:22:29;;;;;;;;;82.00;66.33;;;;;;;;12096900;29;8999;-50
2021/01/20 21:28:32;;;;;;;;;86.33;69.00;;;;;;;;12099069;29;8890;-50
2021/01/20 21:34:33;;;;;;;;;89.33;70.00;;;;;;;;12098086;29;8872;-47
2021/01/20 21:40:35;;;;;;;;;85.67;69.67;;;;;;;;12100046;29;8890;-48
2021/01/20 21:46:36;;;;;;;;;99.33;74.33;;;;;;;;12097491;29;8868;-47
2021/01/20 21:52:37;;;;;;;;;93.00;72.67;;;;;;;;12096964;29;8873;-49
2021/01/20 21:58:39;;;;;;;;;81.67;66.67;;;;;;;;12097777;29;8860;-50
2021/01/20 22:04:41;;;;;;;;;84.67;66.00;;;;;;;;12095850;29;8884;-49
2021/01/20 22:10:42;;;;;;;;;78.67;64.67;;;;;;;;12098376;29;9626;-49
2021/01/20 22:16:44;;;;;;;;;74.67;62.33;;;;;;;;12095541;29;9532;-46
2021/01/20 22:22:45;;;;;;;;;89.00;66.67;;;;;;;;12096120;29;8986;-49
2021/01/20 22:28:47;;;;;;;;;82.67;64.00;;;;;;;;12097637;29;8857;-49
2021/01/20 22:34:48;;;;;;;;;77.00;60.67;;;;;;;;12105493;29;9610;-49
2021/01/20 22:40:49;;;;;;;;;77.67;63.67;;;;;;;;12106871;29;8895;-49
2021/01/20 22:46:51;;;;;;;;;75.00;63.00;;;;;;;;12104756;29;9664;-49
2021/01/20 22:52:52;;;;;;;;;69.67;58.00;;;;;;;;12103927;29;8872;-47
2021/01/20 22:58:54;;;;;;;;;70.67;57.33;;;;;;;;12105665;29;8852;-50
2021/01/20 23:04:55;;;;;;;;;67.00;54.00;;;;;;;;12103290;29;8864;-50
2021/01/20 23:10:57;;;;;;;;;70.67;54.00;;;;;;;;12104727;29;8855;-47
2021/01/20 23:16:58;;;;;;;;;72.67;57.67;;;;;;;;12103360;29;8860;-48
2021/01/20 23:23:00;;;;;;;;;72.67;57.33;;;;;;;;12102373;29;8888;-48
2021/01/20 23:29:03;;;;;;;;;72.67;57.33;;;;;;;;12104454;29;8994;-48
2021/01/20 23:35:05;;;;;;;;;71.33;57.00;;;;;;;;12103262;29;8864;-49
2021/01/20 23:41:06;;;;;;;;;73.00;57.67;;;;;;;;12095265;29;9464;-48
2021/01/20 23:47:08;;;;;;;;;68.33;56.33;;;;;;;;12101740;29;8974;-47
2021/01/20 23:53:09;;;;;;;;;71.33;54.33;;;;;;;;12101308;29;8876;-47
2021/01/20 23:59:11;;;;;;;;;64.00;49.67;;;;;;;;12099649;29;8868;-49
